Hawk — LAGF7 — position and weather

sailwx.info

Track history (hours):
 
Tides and Currents Weather Stations Pressure Air Temp Water Temp Dewpoint Dewpoint Depression Visibility Wind Speed Wind Dir Waves Ship Positions

Hawk

Last reported at 2016-Sep-20 13:25 UTC. Time now 2016-Sep-28 15:25 UTC.
Position N 58°45' W 004°43'.
Warning: this ship's position is 8 days out of date.

Length 223 m; draft 9.8 m.

Type: Ship. MMSI: 259848000.

Date/timePositionNaut miles runAvg speedWind from/ knotsBaromVisibWave heightAir tempDewpointWater temp
2016-Sep-20 13:25N 58°45' W 004°43'28 9.8
2016-Sep-20 10:33N 58°44' W 003°49'17 8.5
2016-Sep-20 08:33N 58°43' W 003°16'8 8.3
2016-Sep-20 07:33N 58°41' W 003°01'1111.4
2016-Sep-20 06:33N 58°30' W 002°54'  
2016-Sep-15 04:33N 57°32' W 001°16'1412.1
2016-Sep-15 03:22N 57°20' W 001°04'2111.3
2016-Sep-15 01:30N 57°00' W 000°48'32 9.8
2016-Sep-14 22:17N 56°30' W 000°30'810.5
2016-Sep-14 21:33N 56°23' W 000°24'8911.1
2016-Sep-14 13:33N 55°03' E 000°42'3411.1
2016-Sep-14 10:27N 54°31' E 001°07'2811.9
2016-Sep-14 08:09N 54°12' E 001°41'811.4
2016-Sep-14 07:29N 54°07' E 001°50'1011.1
2016-Sep-14 06:33N 53°60' E 002°03'3210.6
2016-Sep-14 03:33N 53°41' E 002°46'5010.1
2016-Sep-13 22:33N 52°50' E 002°40'50 9.9
2016-Sep-13 17:33N 52°01' E 002°38'10 9.7
2016-Sep-13 16:33N 51°51' E 002°37'50 9.9
2016-Sep-13 11:33N 51°10' E 001°52'2311.4
2016-Sep-13 09:33N 50°54' E 001°26'2311.2
2016-Sep-13 07:29N 50°35' E 001°07'1110.0
2016-Sep-13 06:21N 50°29' E 000°51'1810.3
2016-Sep-13 04:33N 50°24' E 000°23'2010.0
2016-Sep-13 02:33N 50°19' W 000°07'26 8.7
2016-Sep-12 23:33N 50°13' W 000°47'14 6.9
2016-Sep-12 21:33N 50°09' W 001°08'15 7.4
2016-Sep-12 19:33N 50°06' W 001°30'5110.3
2016-Sep-12 14:33N 49°52' W 002°47'1111.2
2016-Sep-12 13:33N 49°45' W 003°01'1111.0
2016-Sep-12 12:33N 49°40' W 003°16'1110.8
2016-Sep-12 11:33N 49°35' W 003°30'1110.7
2016-Sep-12 10:33N 49°30' W 003°45'3210.7
2016-Sep-12 07:32N 49°14' W 004°28'1111.1
2016-Sep-12 06:32N 49°08' W 004°43'3311.1
2016-Sep-12 03:33N 48°51' W 005°26'2311.3
2016-Sep-12 01:28N 48°33' W 005°48'2712.1
2016-Sep-11 23:12N 48°08' W 006°07'2210.9
2016-Sep-11 21:14N 47°49' W 006°22'  
Track history (hours):
 
Tides and Currents Weather Stations Pressure Air Temp Water Temp Dewpoint Dewpoint Depression Visibility Wind Speed Wind Dir Waves Ship Positions

Hawk

Last reported at 2016-Sep-20 13:25 UTC. Time now 2016-Sep-28 15:25 UTC.
Position N 58°45' W 004°43'.
Warning: this ship's position is 8 days out of date.

Length 223 m; draft 9.8 m.

Type: Ship. MMSI: 259848000.

Date/timePositionNaut miles runAvg speedWind from/ knotsBaromVisibWave heightAir tempDewpointWater temp
2016-Sep-20 13:25N 58°45' W 004°43'28 9.8
2016-Sep-20 10:33N 58°44' W 003°49'17 8.5
2016-Sep-20 08:33N 58°43' W 003°16'8 8.3
2016-Sep-20 07:33N 58°41' W 003°01'1111.4
2016-Sep-20 06:33N 58°30' W 002°54'  
2016-Sep-15 04:33N 57°32' W 001°16'1412.1
2016-Sep-15 03:22N 57°20' W 001°04'2111.3
2016-Sep-15 01:30N 57°00' W 000°48'32 9.8
2016-Sep-14 22:17N 56°30' W 000°30'810.5
2016-Sep-14 21:33N 56°23' W 000°24'8911.1
2016-Sep-14 13:33N 55°03' E 000°42'3411.1
2016-Sep-14 10:27N 54°31' E 001°07'2811.9
2016-Sep-14 08:09N 54°12' E 001°41'811.4
2016-Sep-14 07:29N 54°07' E 001°50'1011.1
2016-Sep-14 06:33N 53°60' E 002°03'3210.6
2016-Sep-14 03:33N 53°41' E 002°46'5010.1
2016-Sep-13 22:33N 52°50' E 002°40'50 9.9
2016-Sep-13 17:33N 52°01' E 002°38'10 9.7
2016-Sep-13 16:33N 51°51' E 002°37'50 9.9
2016-Sep-13 11:33N 51°10' E 001°52'2311.4
2016-Sep-13 09:33N 50°54' E 001°26'2311.2
2016-Sep-13 07:29N 50°35' E 001°07'1110.0
2016-Sep-13 06:21N 50°29' E 000°51'1810.3
2016-Sep-13 04:33N 50°24' E 000°23'2010.0
2016-Sep-13 02:33N 50°19' W 000°07'26 8.7
2016-Sep-12 23:33N 50°13' W 000°47'14 6.9
2016-Sep-12 21:33N 50°09' W 001°08'15 7.4
2016-Sep-12 19:33N 50°06' W 001°30'5110.3
2016-Sep-12 14:33N 49°52' W 002°47'1111.2
2016-Sep-12 13:33N 49°45' W 003°01'1111.0
2016-Sep-12 12:33N 49°40' W 003°16'1110.8
2016-Sep-12 11:33N 49°35' W 003°30'1110.7
2016-Sep-12 10:33N 49°30' W 003°45'3210.7
2016-Sep-12 07:32N 49°14' W 004°28'1111.1
2016-Sep-12 06:32N 49°08' W 004°43'3311.1
2016-Sep-12 03:33N 48°51' W 005°26'2311.3
2016-Sep-12 01:28N 48°33' W 005°48'2712.1
2016-Sep-11 23:12N 48°08' W 006°07'2210.9
2016-Sep-11 21:14N 47°49' W 006°22'  

Dump ship's entire track history